sensor_id;sensor_type;location;lat;lon;timestamp;pressure;altitude;pressure_sealevel;temperature;humidity
48156;BME280;35568;48.104;11.782;2023-03-25T00:01:04;94904.85;;;7.96;51.41
48156;BME280;35568;48.104;11.782;2023-03-25T00:03:32;94905.74;;;7.71;51.32
48156;BME280;35568;48.104;11.782;2023-03-25T00:05:59;94905.71;;;7.57;51.47
48156;BME280;35568;48.104;11.782;2023-03-25T00:08:26;94904.29;;;8.02;51.12
48156;BME280;35568;48.104;11.782;2023-03-25T00:10:56;94906.50;;;7.72;51.03
48156;BME280;35568;48.104;11.782;2023-03-25T00:13:25;94903.97;;;7.72;50.98
48156;BME280;35568;48.104;11.782;2023-03-25T00:15:53;94902.31;;;8.07;50.91
48156;BME280;35568;48.104;11.782;2023-03-25T00:18:20;94899.54;;;7.95;50.33
48156;BME280;35568;48.104;11.782;2023-03-25T00:20:48;94894.63;;;8.02;50.45
48156;BME280;35568;48.104;11.782;2023-03-25T00:23:15;94894.31;;;7.72;50.42
48156;BME280;35568;48.104;11.782;2023-03-25T00:25:42;94897.86;;;7.79;50.72
48156;BME280;35568;48.104;11.782;2023-03-25T00:28:08;94895.29;;;7.96;50.56
48156;BME280;35568;48.104;11.782;2023-03-25T00:30:37;94891.96;;;7.99;50.54
48156;BME280;35568;48.104;11.782;2023-03-25T00:33:04;94887.73;;;8.26;50.59
48156;BME280;35568;48.104;11.782;2023-03-25T00:35:31;94885.46;;;7.99;50.48
48156;BME280;35568;48.104;11.782;2023-03-25T00:37:58;94886.98;;;7.78;50.55
48156;BME280;35568;48.104;11.782;2023-03-25T00:40:26;94887.44;;;7.90;50.98
48156;BME280;35568;48.104;11.782;2023-03-25T00:42:54;94885.79;;;7.69;51.00
48156;BME280;35568;48.104;11.782;2023-03-25T00:45:21;94883.75;;;7.68;50.99
48156;BME280;35568;48.104;11.782;2023-03-25T00:47:48;94884.89;;;7.86;51.54
48156;BME280;35568;48.104;11.782;2023-03-25T00:50:15;94878.35;;;7.80;51.42
48156;BME280;35568;48.104;11.782;2023-03-25T00:52:42;94876.25;;;7.21;51.57
48156;BME280;35568;48.104;11.782;2023-03-25T00:55:09;94873.02;;;7.15;51.72
48156;BME280;35568;48.104;11.782;2023-03-25T00:57:36;94872.95;;;7.37;51.61
48156;BME280;35568;48.104;11.782;2023-03-25T01:00:03;94876.04;;;7.28;51.55
48156;BME280;35568;48.104;11.782;2023-03-25T01:02:30;94873.73;;;7.21;51.57
48156;BME280;35568;48.104;11.782;2023-03-25T01:04:57;94874.16;;;7.02;51.59
48156;BME280;35568;48.104;11.782;2023-03-25T01:07:24;94872.50;;;7.07;51.44
48156;BME280;35568;48.104;11.782;2023-03-25T01:09:52;94873.83;;;7.20;50.96
48156;BME280;35568;48.104;11.782;2023-03-25T01:12:18;94870.63;;;7.35;50.86
48156;BME280;35568;48.104;11.782;2023-03-25T01:14:45;94866.53;;;7.48;50.38
48156;BME280;35568;48.104;11.782;2023-03-25T01:17:13;94873.08;;;7.39;50.14
48156;BME280;35568;48.104;11.782;2023-03-25T01:19:40;94866.16;;;7.54;50.24
48156;BME280;35568;48.104;11.782;2023-03-25T01:22:07;94858.28;;;7.88;49.52
48156;BME280;35568;48.104;11.782;2023-03-25T01:24:34;94861.73;;;7.79;49.56
48156;BME280;35568;48.104;11.782;2023-03-25T01:27:01;94865.49;;;7.70;49.51
48156;BME280;35568;48.104;11.782;2023-03-25T01:29:28;94864.68;;;7.60;49.18
48156;BME280;35568;48.104;11.782;2023-03-25T01:31:56;94862.88;;;7.68;48.99
48156;BME280;35568;48.104;11.782;2023-03-25T01:34:23;94858.49;;;8.07;48.74
48156;BME280;35568;48.104;11.782;2023-03-25T01:36:50;94858.14;;;8.18;48.62
48156;BME280;35568;48.104;11.782;2023-03-25T01:39:18;94853.64;;;8.02;48.70
48156;BME280;35568;48.104;11.782;2023-03-25T01:41:47;94857.14;;;8.14;48.52
48156;BME280;35568;48.104;11.782;2023-03-25T01:45:13;94858.92;;;8.17;48.56
48156;BME280;35568;48.104;11.782;2023-03-25T01:47:41;94856.42;;;8.33;47.62
48156;BME280;35568;48.104;11.782;2023-03-25T01:50:09;94851.25;;;8.02;47.83
48156;BME280;35568;48.104;11.782;2023-03-25T01:52:37;94846.34;;;8.43;47.31
48156;BME280;35568;48.104;11.782;2023-03-25T01:55:04;94845.69;;;8.09;47.47
48156;BME280;35568;48.104;11.782;2023-03-25T01:57:32;94855.47;;;8.23;47.21
48156;BME280;35568;48.104;11.782;2023-03-25T01:59:59;94852.99;;;8.62;47.22
48156;BME280;35568;48.104;11.782;2023-03-25T02:02:27;94852.88;;;8.16;47.30
48156;BME280;35568;48.104;11.782;2023-03-25T02:04:57;94850.82;;;8.27;47.14
48156;BME280;35568;48.104;11.782;2023-03-25T02:07:27;94852.37;;;8.37;47.16
48156;BME280;35568;48.104;11.782;2023-03-25T02:09:55;94842.12;;;8.41;47.30
48156;BME280;35568;48.104;11.782;2023-03-25T02:12:23;94843.79;;;8.33;47.26
48156;BME280;35568;48.104;11.782;2023-03-25T02:14:50;94853.57;;;8.47;46.89
48156;BME280;35568;48.104;11.782;2023-03-25T02:17:22;94844.63;;;8.34;46.95
48156;BME280;35568;48.104;11.782;2023-03-25T02:20:11;94840.90;;;8.24;46.84
48156;BME280;35568;48.104;11.782;2023-03-25T02:22:58;94838.02;;;8.32;46.68
48156;BME280;35568;48.104;11.782;2023-03-25T02:25:37;94835.38;;;8.62;45.84
48156;BME280;35568;48.104;11.782;2023-03-25T02:28:13;94836.73;;;8.54;45.66
48156;BME280;35568;48.104;11.782;2023-03-25T02:30:58;94835.31;;;8.35;46.11
48156;BME280;35568;48.104;11.782;2023-03-25T02:33:40;94835.14;;;8.24;46.53
48156;BME280;35568;48.104;11.782;2023-03-25T02:37:00;94819.44;;;7.93;46.63
48156;BME280;35568;48.104;11.782;2023-03-25T02:39:33;94814.06;;;8.36;47.13
48156;BME280;35568;48.104;11.782;2023-03-25T02:42:08;94817.19;;;8.12;46.69
48156;BME280;35568;48.104;11.782;2023-03-25T02:44:41;94825.62;;;8.00;46.56
48156;BME280;35568;48.104;11.782;2023-03-25T02:47:15;94828.00;;;8.18;46.99
48156;BME280;35568;48.104;11.782;2023-03-25T02:49:45;94828.81;;;8.23;46.79
48156;BME280;35568;48.104;11.782;2023-03-25T02:52:17;94833.54;;;8.40;46.34
48156;BME280;35568;48.104;11.782;2023-03-25T02:54:47;94839.05;;;7.86;46.39
48156;BME280;35568;48.104;11.782;2023-03-25T02:57:18;94843.95;;;7.93;46.46
48156;BME280;35568;48.104;11.782;2023-03-25T02:59:49;94840.56;;;7.94;46.63
48156;BME280;35568;48.104;11.782;2023-03-25T03:02:17;94838.71;;;7.94;46.60
48156;BME280;35568;48.104;11.782;2023-03-25T03:04:48;94835.02;;;7.93;46.47
48156;BME280;35568;48.104;11.782;2023-03-25T03:07:21;94836.37;;;7.76;46.38
48156;BME280;35568;48.104;11.782;2023-03-25T03:09:53;94833.16;;;7.75;46.65
48156;BME280;35568;48.104;11.782;2023-03-25T03:12:36;94827.95;;;7.49;46.79
48156;BME280;35568;48.104;11.782;2023-03-25T03:15:18;94844.81;;;7.40;47.61
48156;BME280;35568;48.104;11.782;2023-03-25T03:17:59;94845.44;;;7.62;47.60
48156;BME280;35568;48.104;11.782;2023-03-25T03:20:36;94837.10;;;7.69;47.28
48156;BME280;35568;48.104;11.782;2023-03-25T03:23:10;94847.36;;;7.93;46.49
48156;BME280;35568;48.104;11.782;2023-03-25T03:25:45;94837.81;;;7.69;47.09
48156;BME280;35568;48.104;11.782;2023-03-25T03:28:16;94833.11;;;7.40;46.69
48156;BME280;35568;48.104;11.782;2023-03-25T03:30:51;94843.16;;;7.37;47.29
48156;BME280;35568;48.104;11.782;2023-03-25T03:33:25;94826.30;;;7.52;46.91
48156;BME280;35568;48.104;11.782;2023-03-25T03:35:59;94832.62;;;7.67;46.58
48156;BME280;35568;48.104;11.782;2023-03-25T03:38:30;94841.40;;;7.87;46.45
48156;BME280;35568;48.104;11.782;2023-03-25T03:41:00;94850.31;;;7.79;46.09
48156;BME280;35568;48.104;11.782;2023-03-25T03:43:33;94848.41;;;7.50;46.45
48156;BME280;35568;48.104;11.782;2023-03-25T03:46:06;94844.83;;;7.73;46.56
48156;BME280;35568;48.104;11.782;2023-03-25T03:48:40;94852.33;;;7.52;46.77
48156;BME280;35568;48.104;11.782;2023-03-25T03:51:12;94852.27;;;7.63;47.04
48156;BME280;35568;48.104;11.782;2023-03-25T03:53:45;94855.82;;;8.09;46.53
48156;BME280;35568;48.104;11.782;2023-03-25T03:56:17;94858.91;;;7.72;46.62
48156;BME280;35568;48.104;11.782;2023-03-25T03:58:47;94869.26;;;7.51;46.73
48156;BME280;35568;48.104;11.782;2023-03-25T04:03:05;94872.07;;;7.92;45.67
48156;BME280;35568;48.104;11.782;2023-03-25T04:05:35;94870.18;;;7.78;45.89
48156;BME280;35568;48.104;11.782;2023-03-25T04:08:07;94874.72;;;7.72;46.51
48156;BME280;35568;48.104;11.782;2023-03-25T04:10:39;94867.28;;;7.40;46.56
48156;BME280;35568;48.104;11.782;2023-03-25T04:13:10;94865.68;;;7.13;46.66
48156;BME280;35568;48.104;11.782;2023-03-25T04:15:37;94870.84;;;7.13;46.99
48156;BME280;35568;48.104;11.782;2023-03-25T04:18:04;94871.06;;;7.20;47.05
48156;BME280;35568;48.104;11.782;2023-03-25T04:20:32;94864.91;;;7.34;46.92
48156;BME280;35568;48.104;11.782;2023-03-25T04:23:00;94861.38;;;7.13;46.79
48156;BME280;35568;48.104;11.782;2023-03-25T04:25:26;94855.65;;;7.04;46.81
48156;BME280;35568;48.104;11.782;2023-03-25T04:27:53;94852.19;;;7.35;46.92
48156;BME280;35568;48.104;11.782;2023-03-25T04:30:20;94859.67;;;7.21;46.53
48156;BME280;35568;48.104;11.782;2023-03-25T04:32:47;94851.78;;;6.93;47.02
48156;BME280;35568;48.104;11.782;2023-03-25T04:35:14;94864.78;;;6.66;47.04
48156;BME280;35568;48.104;11.782;2023-03-25T04:37:41;94864.13;;;6.54;46.91
48156;BME280;35568;48.104;11.782;2023-03-25T04:40:09;94864.56;;;7.21;46.67
48156;BME280;35568;48.104;11.782;2023-03-25T04:42:36;94860.59;;;7.18;46.50
48156;BME280;35568;48.104;11.782;2023-03-25T04:45:03;94867.19;;;6.94;46.61
48156;BME280;35568;48.104;11.782;2023-03-25T04:47:31;94859.52;;;6.48;47.04
48156;BME280;35568;48.104;11.782;2023-03-25T04:49:58;94860.43;;;6.48;47.01
48156;BME280;35568;48.104;11.782;2023-03-25T04:52:25;94873.05;;;6.68;46.73
48156;BME280;35568;48.104;11.782;2023-03-25T04:54:52;94867.07;;;6.92;46.29
48156;BME280;35568;48.104;11.782;2023-03-25T04:57:19;94879.63;;;6.91;46.36
48156;BME280;35568;48.104;11.782;2023-03-25T04:59:45;94876.45;;;6.55;46.38
48156;BME280;35568;48.104;11.782;2023-03-25T05:02:12;94876.21;;;6.54;46.70
48156;BME280;35568;48.104;11.782;2023-03-25T05:04:40;94873.36;;;6.29;46.67
48156;BME280;35568;48.104;11.782;2023-03-25T05:07:07;94873.80;;;6.65;46.98
48156;BME280;35568;48.104;11.782;2023-03-25T05:09:33;94873.64;;;6.35;46.81
48156;BME280;35568;48.104;11.782;2023-03-25T05:12:00;94872.67;;;6.92;46.28
48156;BME280;35568;48.104;11.782;2023-03-25T05:14:27;94864.61;;;7.00;45.77
48156;BME280;35568;48.104;11.782;2023-03-25T05:16:54;94866.81;;;6.91;46.01
48156;BME280;35568;48.104;11.782;2023-03-25T05:19:21;94863.76;;;7.10;45.92
48156;BME280;35568;48.104;11.782;2023-03-25T05:21:48;94860.51;;;7.17;45.94
48156;BME280;35568;48.104;11.782;2023-03-25T05:24:15;94861.78;;;6.88;46.43
48156;BME280;35568;48.104;11.782;2023-03-25T05:26:42;94863.05;;;6.89;46.60
48156;BME280;35568;48.104;11.782;2023-03-25T05:29:12;94861.19;;;6.83;46.82
48156;BME280;35568;48.104;11.782;2023-03-25T05:31:40;94860.24;;;7.04;47.03
48156;BME280;35568;48.104;11.782;2023-03-25T05:34:07;94865.84;;;7.01;46.80
48156;BME280;35568;48.104;11.782;2023-03-25T05:36:34;94877.21;;;6.96;46.90
48156;BME280;35568;48.104;11.782;2023-03-25T05:39:01;94869.62;;;6.67;47.11
48156;BME280;35568;48.104;11.782;2023-03-25T05:41:29;94867.60;;;6.80;47.76
48156;BME280;35568;48.104;11.782;2023-03-25T05:43:55;94877.24;;;6.67;47.44
48156;BME280;35568;48.104;11.782;2023-03-25T05:46:22;94889.19;;;6.68;47.27
48156;BME280;35568;48.104;11.782;2023-03-25T05:48:49;94890.76;;;6.99;46.62
48156;BME280;35568;48.104;11.782;2023-03-25T05:51:17;94888.90;;;6.80;46.93
48156;BME280;35568;48.104;11.782;2023-03-25T05:53:46;94889.03;;;6.68;47.26
48156;BME280;35568;48.104;11.782;2023-03-25T05:56:13;94893.72;;;6.79;46.56
48156;BME280;35568;48.104;11.782;2023-03-25T05:58:40;94898.08;;;7.61;45.84
48156;BME280;35568;48.104;11.782;2023-03-25T06:01:09;94891.47;;;7.61;45.54
48156;BME280;35568;48.104;11.782;2023-03-25T06:03:36;94890.13;;;7.37;45.52
48156;BME280;35568;48.104;11.782;2023-03-25T06:06:04;94898.42;;;7.85;44.90
48156;BME280;35568;48.104;11.782;2023-03-25T06:08:31;94903.78;;;7.69;45.51
48156;BME280;35568;48.104;11.782;2023-03-25T06:10:58;94907.44;;;8.13;44.88
48156;BME280;35568;48.104;11.782;2023-03-25T06:13:26;94907.29;;;7.61;44.93
48156;BME280;35568;48.104;11.782;2023-03-25T06:15:53;94907.31;;;7.62;44.99
48156;BME280;35568;48.104;11.782;2023-03-25T06:18:20;94919.74;;;7.37;44.83
48156;BME280;35568;48.104;11.782;2023-03-25T06:20:47;94933.64;;;7.92;43.99
48156;BME280;35568;48.104;11.782;2023-03-25T06:23:14;94932.29;;;7.80;43.42
48156;BME280;35568;48.104;11.782;2023-03-25T06:25:40;94937.65;;;7.98;43.46
48156;BME280;35568;48.104;11.782;2023-03-25T06:28:07;94943.67;;;7.85;43.22
48156;BME280;35568;48.104;11.782;2023-03-25T06:30:34;94950.21;;;8.02;43.35
48156;BME280;35568;48.104;11.782;2023-03-25T06:33:02;94950.43;;;8.48;42.81
48156;BME280;35568;48.104;11.782;2023-03-25T06:35:29;94953.22;;;8.19;42.42
48156;BME280;35568;48.104;11.782;2023-03-25T06:37:55;94957.40;;;8.50;42.13
48156;BME280;35568;48.104;11.782;2023-03-25T06:40:22;94961.41;;;8.09;42.43
48156;BME280;35568;48.104;11.782;2023-03-25T06:42:49;94953.73;;;7.71;42.02
48156;BME280;35568;48.104;11.782;2023-03-25T06:45:16;94960.91;;;7.64;42.06
48156;BME280;35568;48.104;11.782;2023-03-25T06:47:43;94960.84;;;7.64;41.84
48156;BME280;35568;48.104;11.782;2023-03-25T06:50:10;94969.79;;;7.92;42.02
48156;BME280;35568;48.104;11.782;2023-03-25T06:52:36;94982.61;;;7.01;42.42
48156;BME280;35568;48.104;11.782;2023-03-25T06:55:04;94988.89;;;7.48;41.51
48156;BME280;35568;48.104;11.782;2023-03-25T06:57:31;94977.38;;;7.56;41.71
48156;BME280;35568;48.104;11.782;2023-03-25T06:59:58;94976.07;;;7.65;41.83
48156;BME280;35568;48.104;11.782;2023-03-25T07:02:25;94978.83;;;7.04;42.66
48156;BME280;35568;48.104;11.782;2023-03-25T07:04:52;94984.63;;;7.04;43.11
48156;BME280;35568;48.104;11.782;2023-03-25T07:07:18;94997.89;;;7.05;43.75
48156;BME280;35568;48.104;11.782;2023-03-25T07:09:50;94989.78;;;6.98;44.10
48156;BME280;35568;48.104;11.782;2023-03-25T07:12:16;94990.24;;;7.00;44.18
48156;BME280;35568;48.104;11.782;2023-03-25T07:14:43;94995.04;;;6.62;44.82
48156;BME280;35568;48.104;11.782;2023-03-25T07:17:15;94991.24;;;6.97;44.53
48156;BME280;35568;48.104;11.782;2023-03-25T07:19:42;94993.85;;;7.37;44.40
48156;BME280;35568;48.104;11.782;2023-03-25T07:22:09;94986.22;;;7.03;45.43
48156;BME280;35568;48.104;11.782;2023-03-25T07:24:36;95002.09;;;6.89;45.17
48156;BME280;35568;48.104;11.782;2023-03-25T07:27:03;95001.91;;;7.07;45.14
48156;BME280;35568;48.104;11.782;2023-03-25T07:29:30;95007.20;;;6.73;45.13
48156;BME280;35568;48.104;11.782;2023-03-25T07:31:57;95011.34;;;6.96;45.32
48156;BME280;35568;48.104;11.782;2023-03-25T07:34:24;95007.41;;;7.06;44.57
48156;BME280;35568;48.104;11.782;2023-03-25T07:36:51;95013.33;;;6.69;45.47
48156;BME280;35568;48.104;11.782;2023-03-25T07:39:18;95017.49;;;6.99;45.55
48156;BME280;35568;48.104;11.782;2023-03-25T07:41:45;95018.08;;;6.86;45.30
48156;BME280;35568;48.104;11.782;2023-03-25T07:44:12;95016.63;;;7.12;44.94
48156;BME280;35568;48.104;11.782;2023-03-25T07:46:39;95018.19;;;6.96;44.91
48156;BME280;35568;48.104;11.782;2023-03-25T07:49:05;95021.86;;;6.71;45.47
48156;BME280;35568;48.104;11.782;2023-03-25T07:51:32;95018.41;;;6.61;45.67
48156;BME280;35568;48.104;11.782;2023-03-25T07:53:59;95025.26;;;6.70;45.38
48156;BME280;35568;48.104;11.782;2023-03-25T07:56:26;95024.03;;;6.70;45.05
48156;BME280;35568;48.104;11.782;2023-03-25T07:58:53;95024.74;;;7.00;44.24
48156;BME280;35568;48.104;11.782;2023-03-25T08:01:20;95024.08;;;6.90;44.35
48156;BME280;35568;48.104;11.782;2023-03-25T08:03:47;95026.56;;;6.73;44.78
48156;BME280;35568;48.104;11.782;2023-03-25T08:06:13;95029.25;;;6.90;44.66
48156;BME280;35568;48.104;11.782;2023-03-25T08:08:41;95030.31;;;7.10;44.40
48156;BME280;35568;48.104;11.782;2023-03-25T08:11:08;95028.84;;;7.74;44.04
48156;BME280;35568;48.104;11.782;2023-03-25T08:13:35;95029.98;;;7.79;43.27
48156;BME280;35568;48.104;11.782;2023-03-25T08:16:07;95026.31;;;8.22;43.61
48156;BME280;35568;48.104;11.782;2023-03-25T08:18:35;95034.50;;;8.20;42.96
48156;BME280;35568;48.104;11.782;2023-03-25T08:21:03;95030.06;;;8.16;42.75
48156;BME280;35568;48.104;11.782;2023-03-25T08:23:30;95028.57;;;9.22;42.05
48156;BME280;35568;48.104;11.782;2023-03-25T08:25:57;95028.82;;;9.21;41.61
48156;BME280;35568;48.104;11.782;2023-03-25T08:28:24;95035.55;;;9.76;41.53
48156;BME280;35568;48.104;11.782;2023-03-25T08:30:51;95033.43;;;8.84;41.09
48156;BME280;35568;48.104;11.782;2023-03-25T08:33:19;95030.92;;;8.84;41.12
48156;BME280;35568;48.104;11.782;2023-03-25T08:35:46;95038.36;;;9.15;41.93
48156;BME280;35568;48.104;11.782;2023-03-25T08:38:14;95038.75;;;8.85;41.82
48156;BME280;35568;48.104;11.782;2023-03-25T08:40:42;95047.25;;;8.46;41.95
48156;BME280;35568;48.104;11.782;2023-03-25T08:43:09;95036.41;;;8.94;41.65
48156;BME280;35568;48.104;11.782;2023-03-25T08:45:37;95036.23;;;8.59;41.83
48156;BME280;35568;48.104;11.782;2023-03-25T08:48:04;95033.94;;;8.57;42.29
48156;BME280;35568;48.104;11.782;2023-03-25T08:50:31;95032.70;;;8.36;42.21
48156;BME280;35568;48.104;11.782;2023-03-25T08:52:58;95024.92;;;8.03;43.37
48156;BME280;35568;48.104;11.782;2023-03-25T08:55:25;95019.98;;;8.11;43.13
48156;BME280;35568;48.104;11.782;2023-03-25T08:57:52;95021.70;;;8.48;42.99
48156;BME280;35568;48.104;11.782;2023-03-25T09:00:19;95025.16;;;8.26;43.01
48156;BME280;35568;48.104;11.782;2023-03-25T09:02:46;95024.00;;;8.30;43.10
48156;BME280;35568;48.104;11.782;2023-03-25T09:05:13;95028.69;;;7.98;43.27
48156;BME280;35568;48.104;11.782;2023-03-25T09:07:40;95029.38;;;8.32;43.51
48156;BME280;35568;48.104;11.782;2023-03-25T09:10:09;95021.26;;;8.55;43.30
48156;BME280;35568;48.104;11.782;2023-03-25T09:12:36;95018.66;;;8.19;43.37
48156;BME280;35568;48.104;11.782;2023-03-25T09:15:03;95019.19;;;8.76;43.51
48156;BME280;35568;48.104;11.782;2023-03-25T09:17:30;95015.89;;;8.46;43.22
48156;BME280;35568;48.104;11.782;2023-03-25T09:19:57;95014.63;;;9.27;43.03
48156;BME280;35568;48.104;11.782;2023-03-25T09:22:24;95018.21;;;8.65;42.70
48156;BME280;35568;48.104;11.782;2023-03-25T09:24:50;95015.79;;;8.78;42.83
48156;BME280;35568;48.104;11.782;2023-03-25T09:27:17;95020.27;;;8.81;42.19
48156;BME280;35568;48.104;11.782;2023-03-25T09:29:44;95017.95;;;9.14;41.81
48156;BME280;35568;48.104;11.782;2023-03-25T09:32:11;95022.62;;;8.54;41.58
48156;BME280;35568;48.104;11.782;2023-03-25T09:34:38;95014.96;;;8.44;42.34
48156;BME280;35568;48.104;11.782;2023-03-25T09:37:05;95021.00;;;8.49;41.44
48156;BME280;35568;48.104;11.782;2023-03-25T09:39:32;95019.00;;;9.13;41.08
48156;BME280;35568;48.104;11.782;2023-03-25T09:42:07;95020.40;;;8.95;41.44
48156;BME280;35568;48.104;11.782;2023-03-25T09:44:46;95019.20;;;9.30;41.37
48156;BME280;35568;48.104;11.782;2023-03-25T09:47:19;95016.77;;;9.49;40.53
48156;BME280;35568;48.104;11.782;2023-03-25T09:49:50;95016.91;;;9.72;39.65
48156;BME280;35568;48.104;11.782;2023-03-25T09:52:25;95008.12;;;10.17;39.58
48156;BME280;35568;48.104;11.782;2023-03-25T09:54:57;94998.46;;;9.92;39.20
48156;BME280;35568;48.104;11.782;2023-03-25T09:57:30;94993.14;;;10.29;38.71
48156;BME280;35568;48.104;11.782;2023-03-25T10:00:00;94990.61;;;10.47;38.61
48156;BME280;35568;48.104;11.782;2023-03-25T10:02:35;94995.33;;;10.37;38.31
48156;BME280;35568;48.104;11.782;2023-03-25T10:05:18;94991.89;;;10.74;37.39
48156;BME280;35568;48.104;11.782;2023-03-25T10:07:58;94991.07;;;10.45;38.56
48156;BME280;35568;48.104;11.782;2023-03-25T10:10:35;94984.71;;;10.67;37.68
48156;BME280;35568;48.104;11.782;2023-03-25T10:13:12;94987.46;;;10.86;37.68
48156;BME280;35568;48.104;11.782;2023-03-25T10:15:49;94979.42;;;10.72;37.62
48156;BME280;35568;48.104;11.782;2023-03-25T10:18:31;94973.18;;;10.63;37.52
48156;BME280;35568;48.104;11.782;2023-03-25T10:21:08;94969.02;;;10.82;37.50
48156;BME280;35568;48.104;11.782;2023-03-25T10:23:42;94964.86;;;10.65;36.67
48156;BME280;35568;48.104;11.782;2023-03-25T10:26:15;94956.94;;;10.61;36.90
48156;BME280;35568;48.104;11.782;2023-03-25T10:28:52;94956.94;;;11.09;36.45
48156;BME280;35568;48.104;11.782;2023-03-25T10:31:23;94950.14;;;10.97;36.71
48156;BME280;35568;48.104;11.782;2023-03-25T10:33:52;94939.69;;;11.08;35.39
48156;BME280;35568;48.104;11.782;2023-03-25T10:36:23;94940.63;;;11.07;35.86
48156;BME280;35568;48.104;11.782;2023-03-25T10:38:53;94937.78;;;10.95;35.94
48156;BME280;35568;48.104;11.782;2023-03-25T10:41:25;94928.44;;;11.60;35.32
48156;BME280;35568;48.104;11.782;2023-03-25T10:43:52;94927.25;;;11.24;35.01
48156;BME280;35568;48.104;11.782;2023-03-25T10:46:26;94926.55;;;11.32;35.19
48156;BME280;35568;48.104;11.782;2023-03-25T10:48:55;94921.54;;;10.64;35.64
48156;BME280;35568;48.104;11.782;2023-03-25T10:51:26;94922.98;;;10.86;36.30
48156;BME280;35568;48.104;11.782;2023-03-25T10:53:53;94927.56;;;10.54;36.87
48156;BME280;35568;48.104;11.782;2023-03-25T10:56:23;94945.72;;;10.13;38.41
48156;BME280;35568;48.104;11.782;2023-03-25T10:58:54;94933.02;;;9.76;40.30
48156;BME280;35568;48.104;11.782;2023-03-25T11:01:33;94933.25;;;10.36;40.66
48156;BME280;35568;48.104;11.782;2023-03-25T11:04:02;94933.72;;;10.58;40.22
48156;BME280;35568;48.104;11.782;2023-03-25T11:06:34;94926.74;;;10.56;38.96
48156;BME280;35568;48.104;11.782;2023-03-25T11:09:23;94911.72;;;10.45;38.95
48156;BME280;35568;48.104;11.782;2023-03-25T11:11:51;94926.10;;;10.26;38.75
48156;BME280;35568;48.104;11.782;2023-03-25T11:14:22;94917.55;;;9.69;39.84
48156;BME280;35568;48.104;11.782;2023-03-25T11:16:54;94909.80;;;10.91;39.18
48156;BME280;35568;48.104;11.782;2023-03-25T11:19:25;94908.13;;;11.79;37.50
48156;BME280;35568;48.104;11.782;2023-03-25T11:21:54;94898.69;;;12.44;35.30
48156;BME280;35568;48.104;11.782;2023-03-25T11:24:28;94900.49;;;12.40;35.01
48156;BME280;35568;48.104;11.782;2023-03-25T11:26:56;94898.51;;;12.85;34.84
48156;BME280;35568;48.104;11.782;2023-03-25T11:29:25;94900.06;;;12.62;34.83
48156;BME280;35568;48.104;11.782;2023-03-25T11:31:56;94893.56;;;12.33;35.29
48156;BME280;35568;48.104;11.782;2023-03-25T11:34:24;94895.87;;;11.61;35.05
48156;BME280;35568;48.104;11.782;2023-03-25T11:36:54;94889.61;;;11.03;36.28
48156;BME280;35568;48.104;11.782;2023-03-25T11:39:28;94878.99;;;11.02;37.13
48156;BME280;35568;48.104;11.782;2023-03-25T11:41:56;94879.71;;;10.36;38.55
48156;BME280;35568;48.104;11.782;2023-03-25T11:44:26;94872.66;;;10.70;37.62
48156;BME280;35568;48.104;11.782;2023-03-25T11:46:56;94872.79;;;11.34;37.20
48156;BME280;35568;48.104;11.782;2023-03-25T11:49:25;94864.04;;;11.53;35.83
48156;BME280;35568;48.104;11.782;2023-03-25T11:51:58;94864.85;;;12.36;35.50
48156;BME280;35568;48.104;11.782;2023-03-25T11:54:27;94869.03;;;12.01;35.18
48156;BME280;35568;48.104;11.782;2023-03-25T11:56:55;94858.96;;;11.60;35.25
48156;BME280;35568;48.104;11.782;2023-03-25T11:59:24;94864.08;;;11.45;35.56
48156;BME280;35568;48.104;11.782;2023-03-25T12:02:00;94860.42;;;10.75;36.12
48156;BME280;35568;48.104;11.782;2023-03-25T12:04:29;94862.61;;;10.52;36.90
48156;BME280;35568;48.104;11.782;2023-03-25T12:06:59;94848.35;;;10.47;37.71
48156;BME280;35568;48.104;11.782;2023-03-25T12:09:28;94842.60;;;10.93;36.77
48156;BME280;35568;48.104;11.782;2023-03-25T12:12:04;94845.01;;;10.57;37.67
48156;BME280;35568;48.104;11.782;2023-03-25T12:14:45;94853.28;;;10.52;37.01
48156;BME280;35568;48.104;11.782;2023-03-25T12:17:23;94845.96;;;11.37;36.52
48156;BME280;35568;48.104;11.782;2023-03-25T12:20:02;94858.70;;;11.53;35.85
48156;BME280;35568;48.104;11.782;2023-03-25T12:22:44;94855.23;;;11.24;36.25
48156;BME280;35568;48.104;11.782;2023-03-25T12:25:23;94874.23;;;11.18;36.30
48156;BME280;35568;48.104;11.782;2023-03-25T12:27:58;94841.25;;;10.96;36.55
48156;BME280;35568;48.104;11.782;2023-03-25T12:30:40;94844.47;;;11.24;36.12
48156;BME280;35568;48.104;11.782;2023-03-25T12:33:23;94836.90;;;11.26;35.82
48156;BME280;35568;48.104;11.782;2023-03-25T12:36:05;94838.92;;;11.44;35.00
48156;BME280;35568;48.104;11.782;2023-03-25T12:38:46;94836.46;;;10.98;36.25
48156;BME280;35568;48.104;11.782;2023-03-25T12:41:20;94835.43;;;11.15;36.12
48156;BME280;35568;48.104;11.782;2023-03-25T12:43:57;94833.87;;;11.66;35.82
48156;BME280;35568;48.104;11.782;2023-03-25T12:46:36;94842.15;;;11.02;36.56
48156;BME280;35568;48.104;11.782;2023-03-25T12:49:17;94842.67;;;11.94;35.84
48156;BME280;35568;48.104;11.782;2023-03-25T12:51:55;94854.23;;;11.94;34.99
48156;BME280;35568;48.104;11.782;2023-03-25T12:54:41;94841.94;;;11.02;35.56
48156;BME280;35568;48.104;11.782;2023-03-25T12:57:22;94840.92;;;10.69;36.30
48156;BME280;35568;48.104;11.782;2023-03-25T13:00:06;94831.68;;;10.82;37.27
48156;BME280;35568;48.104;11.782;2023-03-25T13:03:08;94842.84;;;10.84;36.79
48156;BME280;35568;48.104;11.782;2023-03-25T13:05:47;94837.69;;;11.24;36.68
48156;BME280;35568;48.104;11.782;2023-03-25T13:08:18;94826.64;;;10.90;36.53
48156;BME280;35568;48.104;11.782;2023-03-25T13:10:50;94827.41;;;11.31;36.32
48156;BME280;35568;48.104;11.782;2023-03-25T13:13:23;94840.30;;;11.26;36.36
48156;BME280;35568;48.104;11.782;2023-03-25T13:15:56;94835.06;;;11.61;36.09